sensor_id;sensor_type;location;lat;lon;timestamp;P1;durP1;ratioP1;P2;durP2;ratioP2
26598;SDS011;14240;51.064;16.612;2024-01-10T00:01:22;221.65;;;72.65;;
26598;SDS011;14240;51.064;16.612;2024-01-10T00:03:52;249.13;;;77.88;;
26598;SDS011;14240;51.064;16.612;2024-01-10T00:06:20;241.80;;;76.03;;
26598;SDS011;14240;51.064;16.612;2024-01-10T00:11:14;236.63;;;71.32;;
26598;SDS011;14240;51.064;16.612;2024-01-10T00:13:39;224.75;;;71.20;;
26598;SDS011;14240;51.064;16.612;2024-01-10T00:16:05;246.45;;;77.45;;
26598;SDS011;14240;51.064;16.612;2024-01-10T00:18:31;261.83;;;80.53;;
26598;SDS011;14240;51.064;16.612;2024-01-10T00:20:57;236.77;;;68.68;;
26598;SDS011;14240;51.064;16.612;2024-01-10T00:23:23;230.00;;;68.35;;
26598;SDS011;14240;51.064;16.612;2024-01-10T00:25:49;195.52;;;62.58;;
26598;SDS011;14240;51.064;16.612;2024-01-10T00:28:15;187.90;;;58.38;;
26598;SDS011;14240;51.064;16.612;2024-01-10T00:30:46;186.90;;;59.90;;
26598;SDS011;14240;51.064;16.612;2024-01-10T00:33:15;194.27;;;59.35;;
26598;SDS011;14240;51.064;16.612;2024-01-10T00:35:40;186.85;;;56.35;;
26598;SDS011;14240;51.064;16.612;2024-01-10T00:38:06;188.40;;;56.95;;
26598;SDS011;14240;51.064;16.612;2024-01-10T00:40:32;191.90;;;58.00;;
26598;SDS011;14240;51.064;16.612;2024-01-10T00:42:58;161.93;;;53.88;;
26598;SDS011;14240;51.064;16.612;2024-01-10T00:45:23;176.02;;;57.80;;
26598;SDS011;14240;51.064;16.612;2024-01-10T00:47:49;157.30;;;51.67;;
26598;SDS011;14240;51.064;16.612;2024-01-10T00:50:15;163.10;;;52.85;;
26598;SDS011;14240;51.064;16.612;2024-01-10T00:52:44;144.23;;;47.72;;
26598;SDS011;14240;51.064;16.612;2024-01-10T00:55:10;155.88;;;50.10;;
26598;SDS011;14240;51.064;16.612;2024-01-10T00:57:36;145.05;;;46.90;;
26598;SDS011;14240;51.064;16.612;2024-01-10T01:00:03;158.95;;;49.03;;
26598;SDS011;14240;51.064;16.612;2024-01-10T01:02:30;153.65;;;50.63;;
26598;SDS011;14240;51.064;16.612;2024-01-10T01:04:56;163.52;;;53.05;;
26598;SDS011;14240;51.064;16.612;2024-01-10T01:07:22;156.70;;;50.33;;
26598;SDS011;14240;51.064;16.612;2024-01-10T01:09:47;172.73;;;54.78;;
26598;SDS011;14240;51.064;16.612;2024-01-10T01:12:13;158.55;;;50.10;;
26598;SDS011;14240;51.064;16.612;2024-01-10T01:14:39;159.30;;;51.88;;
26598;SDS011;14240;51.064;16.612;2024-01-10T01:17:05;168.02;;;50.80;;
26598;SDS011;14240;51.064;16.612;2024-01-10T01:19:30;170.05;;;53.05;;
26598;SDS011;14240;51.064;16.612;2024-01-10T01:21:56;170.80;;;51.33;;
26598;SDS011;14240;51.064;16.612;2024-01-10T01:24:21;163.57;;;49.92;;
26598;SDS011;14240;51.064;16.612;2024-01-10T01:26:47;170.43;;;51.22;;
26598;SDS011;14240;51.064;16.612;2024-01-10T01:29:13;159.63;;;52.08;;
26598;SDS011;14240;51.064;16.612;2024-01-10T01:31:38;148.07;;;51.30;;
26598;SDS011;14240;51.064;16.612;2024-01-10T01:34:04;161.82;;;52.33;;
26598;SDS011;14240;51.064;16.612;2024-01-10T01:36:30;179.20;;;57.50;;
26598;SDS011;14240;51.064;16.612;2024-01-10T01:38:55;174.27;;;57.72;;
26598;SDS011;14240;51.064;16.612;2024-01-10T01:41:21;194.80;;;57.63;;
26598;SDS011;14240;51.064;16.612;2024-01-10T01:43:47;200.60;;;62.08;;
26598;SDS011;14240;51.064;16.612;2024-01-10T01:46:12;186.27;;;61.03;;
26598;SDS011;14240;51.064;16.612;2024-01-10T01:48:39;200.50;;;63.60;;
26598;SDS011;14240;51.064;16.612;2024-01-10T01:51:08;211.13;;;62.78;;
26598;SDS011;14240;51.064;16.612;2024-01-10T01:53:35;205.55;;;62.20;;
26598;SDS011;14240;51.064;16.612;2024-01-10T01:56:02;145.97;;;46.47;;
26598;SDS011;14240;51.064;16.612;2024-01-10T01:58:32;199.77;;;63.85;;
26598;SDS011;14240;51.064;16.612;2024-01-10T02:00:58;186.07;;;63.55;;
26598;SDS011;14240;51.064;16.612;2024-01-10T02:03:25;204.45;;;65.82;;
26598;SDS011;14240;51.064;16.612;2024-01-10T02:05:51;204.75;;;62.97;;
26598;SDS011;14240;51.064;16.612;2024-01-10T02:08:18;196.70;;;62.25;;
26598;SDS011;14240;51.064;16.612;2024-01-10T02:10:44;191.60;;;64.20;;
26598;SDS011;14240;51.064;16.612;2024-01-10T02:13:09;208.80;;;61.80;;
26598;SDS011;14240;51.064;16.612;2024-01-10T02:15:36;145.40;;;46.47;;
26598;SDS011;14240;51.064;16.612;2024-01-10T02:18:03;178.82;;;61.50;;
26598;SDS011;14240;51.064;16.612;2024-01-10T02:20:30;174.15;;;59.25;;
26598;SDS011;14240;51.064;16.612;2024-01-10T02:22:56;185.15;;;61.50;;
26598;SDS011;14240;51.064;16.612;2024-01-10T02:25:22;186.80;;;60.38;;
26598;SDS011;14240;51.064;16.612;2024-01-10T02:27:48;182.27;;;56.47;;
26598;SDS011;14240;51.064;16.612;2024-01-10T02:30:14;195.48;;;59.40;;
26598;SDS011;14240;51.064;16.612;2024-01-10T02:32:40;179.40;;;60.17;;
26598;SDS011;14240;51.064;16.612;2024-01-10T02:35:06;173.95;;;57.33;;
26598;SDS011;14240;51.064;16.612;2024-01-10T02:37:33;176.38;;;55.92;;
26598;SDS011;14240;51.064;16.612;2024-01-10T02:39:59;184.35;;;62.05;;
26598;SDS011;14240;51.064;16.612;2024-01-10T02:42:26;174.52;;;57.13;;
26598;SDS011;14240;51.064;16.612;2024-01-10T02:44:53;196.77;;;62.13;;
26598;SDS011;14240;51.064;16.612;2024-01-10T02:47:19;183.18;;;59.40;;
26598;SDS011;14240;51.064;16.612;2024-01-10T02:49:44;188.32;;;59.63;;
26598;SDS011;14240;51.064;16.612;2024-01-10T02:52:10;202.45;;;61.25;;
26598;SDS011;14240;51.064;16.612;2024-01-10T02:54:36;200.50;;;63.63;;
26598;SDS011;14240;51.064;16.612;2024-01-10T02:57:02;199.15;;;65.38;;
26598;SDS011;14240;51.064;16.612;2024-01-10T02:59:27;190.93;;;62.92;;
26598;SDS011;14240;51.064;16.612;2024-01-10T03:01:53;177.85;;;61.65;;
26598;SDS011;14240;51.064;16.612;2024-01-10T03:04:19;192.95;;;62.53;;
26598;SDS011;14240;51.064;16.612;2024-01-10T03:06:44;175.07;;;60.55;;
26598;SDS011;14240;51.064;16.612;2024-01-10T03:09:10;199.70;;;63.58;;
26598;SDS011;14240;51.064;16.612;2024-01-10T03:11:36;198.93;;;65.00;;
26598;SDS011;14240;51.064;16.612;2024-01-10T03:14:02;204.10;;;65.05;;
26598;SDS011;14240;51.064;16.612;2024-01-10T03:16:37;184.77;;;62.03;;
26598;SDS011;14240;51.064;16.612;2024-01-10T03:19:03;193.93;;;62.20;;
26598;SDS011;14240;51.064;16.612;2024-01-10T03:21:29;216.30;;;62.47;;
26598;SDS011;14240;51.064;16.612;2024-01-10T03:23:55;198.60;;;63.90;;
26598;SDS011;14240;51.064;16.612;2024-01-10T03:26:22;194.32;;;63.50;;
26598;SDS011;14240;51.064;16.612;2024-01-10T03:28:48;192.03;;;65.07;;
26598;SDS011;14240;51.064;16.612;2024-01-10T03:31:14;209.40;;;65.80;;
26598;SDS011;14240;51.064;16.612;2024-01-10T03:33:40;216.32;;;66.53;;
26598;SDS011;14240;51.064;16.612;2024-01-10T03:36:06;187.73;;;65.22;;
26598;SDS011;14240;51.064;16.612;2024-01-10T03:38:34;219.57;;;68.15;;
26598;SDS011;14240;51.064;16.612;2024-01-10T03:40:59;213.20;;;67.88;;
26598;SDS011;14240;51.064;16.612;2024-01-10T03:43:25;217.27;;;71.07;;
26598;SDS011;14240;51.064;16.612;2024-01-10T03:45:51;208.93;;;69.80;;
26598;SDS011;14240;51.064;16.612;2024-01-10T03:48:16;211.43;;;62.83;;
26598;SDS011;14240;51.064;16.612;2024-01-10T03:50:42;208.95;;;66.38;;
26598;SDS011;14240;51.064;16.612;2024-01-10T03:53:08;220.00;;;76.18;;
26598;SDS011;14240;51.064;16.612;2024-01-10T03:55:33;217.60;;;72.00;;
26598;SDS011;14240;51.064;16.612;2024-01-10T03:57:59;198.82;;;68.05;;
26598;SDS011;14240;51.064;16.612;2024-01-10T04:00:25;221.55;;;66.78;;
26598;SDS011;14240;51.064;16.612;2024-01-10T04:02:51;192.65;;;60.22;;
26598;SDS011;14240;51.064;16.612;2024-01-10T04:05:17;194.93;;;61.30;;
26598;SDS011;14240;51.064;16.612;2024-01-10T04:07:45;187.77;;;60.22;;
26598;SDS011;14240;51.064;16.612;2024-01-10T04:10:12;198.80;;;66.32;;
26598;SDS011;14240;51.064;16.612;2024-01-10T04:15:05;209.20;;;66.00;;
26598;SDS011;14240;51.064;16.612;2024-01-10T04:17:31;196.75;;;64.03;;
26598;SDS011;14240;51.064;16.612;2024-01-10T04:19:57;207.82;;;67.30;;
26598;SDS011;14240;51.064;16.612;2024-01-10T04:22:23;205.50;;;67.43;;
26598;SDS011;14240;51.064;16.612;2024-01-10T04:24:49;167.50;;;55.37;;
26598;SDS011;14240;51.064;16.612;2024-01-10T04:27:16;199.32;;;62.08;;
26598;SDS011;14240;51.064;16.612;2024-01-10T04:29:43;232.57;;;71.30;;
26598;SDS011;14240;51.064;16.612;2024-01-10T04:32:09;216.75;;;72.85;;
26598;SDS011;14240;51.064;16.612;2024-01-10T04:34:34;229.02;;;70.00;;
26598;SDS011;14240;51.064;16.612;2024-01-10T04:37:00;224.25;;;68.75;;
26598;SDS011;14240;51.064;16.612;2024-01-10T04:39:26;217.25;;;71.65;;
26598;SDS011;14240;51.064;16.612;2024-01-10T04:41:52;214.68;;;68.57;;
26598;SDS011;14240;51.064;16.612;2024-01-10T04:44:18;221.13;;;69.32;;
26598;SDS011;14240;51.064;16.612;2024-01-10T04:46:43;223.73;;;69.88;;
26598;SDS011;14240;51.064;16.612;2024-01-10T04:49:09;213.82;;;69.55;;
26598;SDS011;14240;51.064;16.612;2024-01-10T04:51:35;208.55;;;68.40;;
26598;SDS011;14240;51.064;16.612;2024-01-10T04:54:00;213.52;;;65.25;;
26598;SDS011;14240;51.064;16.612;2024-01-10T04:56:26;220.23;;;70.10;;
26598;SDS011;14240;51.064;16.612;2024-01-10T04:58:52;230.38;;;73.82;;
26598;SDS011;14240;51.064;16.612;2024-01-10T05:01:18;214.02;;;70.35;;
26598;SDS011;14240;51.064;16.612;2024-01-10T05:03:43;224.23;;;69.05;;
26598;SDS011;14240;51.064;16.612;2024-01-10T05:06:09;232.88;;;70.40;;
26598;SDS011;14240;51.064;16.612;2024-01-10T05:08:35;231.73;;;72.38;;
26598;SDS011;14240;51.064;16.612;2024-01-10T05:11:01;237.13;;;73.85;;
26598;SDS011;14240;51.064;16.612;2024-01-10T05:13:27;221.38;;;75.10;;
26598;SDS011;14240;51.064;16.612;2024-01-10T05:15:56;231.63;;;73.35;;
26598;SDS011;14240;51.064;16.612;2024-01-10T05:18:22;239.65;;;70.80;;
26598;SDS011;14240;51.064;16.612;2024-01-10T05:20:47;208.80;;;67.57;;
26598;SDS011;14240;51.064;16.612;2024-01-10T05:23:13;227.57;;;67.57;;
26598;SDS011;14240;51.064;16.612;2024-01-10T05:25:39;229.23;;;71.03;;
26598;SDS011;14240;51.064;16.612;2024-01-10T05:28:05;221.75;;;69.07;;
26598;SDS011;14240;51.064;16.612;2024-01-10T05:30:31;213.18;;;71.72;;
26598;SDS011;14240;51.064;16.612;2024-01-10T05:32:57;240.82;;;74.13;;
26598;SDS011;14240;51.064;16.612;2024-01-10T05:35:26;219.07;;;71.95;;
26598;SDS011;14240;51.064;16.612;2024-01-10T05:37:52;212.23;;;68.25;;
26598;SDS011;14240;51.064;16.612;2024-01-10T05:40:18;205.35;;;66.68;;
26598;SDS011;14240;51.064;16.612;2024-01-10T05:42:47;207.80;;;67.78;;
26598;SDS011;14240;51.064;16.612;2024-01-10T05:45:12;211.43;;;68.65;;
26598;SDS011;14240;51.064;16.612;2024-01-10T05:47:38;217.75;;;69.38;;
26598;SDS011;14240;51.064;16.612;2024-01-10T05:50:04;223.57;;;68.70;;
26598;SDS011;14240;51.064;16.612;2024-01-10T05:52:32;216.73;;;71.05;;
26598;SDS011;14240;51.064;16.612;2024-01-10T05:54:58;205.52;;;65.22;;
26598;SDS011;14240;51.064;16.612;2024-01-10T05:57:28;226.30;;;66.57;;
26598;SDS011;14240;51.064;16.612;2024-01-10T05:59:55;208.40;;;65.13;;
26598;SDS011;14240;51.064;16.612;2024-01-10T06:02:22;191.68;;;63.03;;
26598;SDS011;14240;51.064;16.612;2024-01-10T06:07:15;177.27;;;57.85;;
26598;SDS011;14240;51.064;16.612;2024-01-10T06:09:40;183.95;;;60.30;;
26598;SDS011;14240;51.064;16.612;2024-01-10T06:12:08;180.82;;;60.92;;
26598;SDS011;14240;51.064;16.612;2024-01-10T06:14:34;186.18;;;58.92;;
26598;SDS011;14240;51.064;16.612;2024-01-10T06:17:01;183.73;;;61.40;;
26598;SDS011;14240;51.064;16.612;2024-01-10T06:19:28;195.90;;;62.88;;
26598;SDS011;14240;51.064;16.612;2024-01-10T06:21:57;197.80;;;60.80;;
26598;SDS011;14240;51.064;16.612;2024-01-10T06:24:24;196.65;;;60.90;;
26598;SDS011;14240;51.064;16.612;2024-01-10T06:26:50;202.95;;;65.72;;
26598;SDS011;14240;51.064;16.612;2024-01-10T06:29:16;199.57;;;66.28;;
26598;SDS011;14240;51.064;16.612;2024-01-10T06:31:41;206.15;;;67.05;;
26598;SDS011;14240;51.064;16.612;2024-01-10T06:34:08;210.57;;;63.00;;
26598;SDS011;14240;51.064;16.612;2024-01-10T06:36:34;195.80;;;60.83;;
26598;SDS011;14240;51.064;16.612;2024-01-10T06:38:59;197.60;;;62.38;;
26598;SDS011;14240;51.064;16.612;2024-01-10T06:41:25;190.23;;;59.53;;
26598;SDS011;14240;51.064;16.612;2024-01-10T06:43:51;209.18;;;63.40;;
26598;SDS011;14240;51.064;16.612;2024-01-10T06:46:17;198.30;;;59.90;;
26598;SDS011;14240;51.064;16.612;2024-01-10T06:48:43;208.93;;;66.30;;
26598;SDS011;14240;51.064;16.612;2024-01-10T06:51:09;213.80;;;66.43;;
26598;SDS011;14240;51.064;16.612;2024-01-10T06:53:37;200.52;;;65.43;;
26598;SDS011;14240;51.064;16.612;2024-01-10T06:56:03;204.98;;;62.70;;
26598;SDS011;14240;51.064;16.612;2024-01-10T06:58:29;191.75;;;67.10;;
26598;SDS011;14240;51.064;16.612;2024-01-10T07:00:55;218.23;;;70.82;;
26598;SDS011;14240;51.064;16.612;2024-01-10T07:03:20;210.32;;;68.45;;
26598;SDS011;14240;51.064;16.612;2024-01-10T07:05:46;196.57;;;64.72;;
26598;SDS011;14240;51.064;16.612;2024-01-10T07:08:11;208.70;;;69.75;;
26598;SDS011;14240;51.064;16.612;2024-01-10T07:10:37;207.52;;;65.00;;
26598;SDS011;14240;51.064;16.612;2024-01-10T07:13:03;243.25;;;70.13;;
26598;SDS011;14240;51.064;16.612;2024-01-10T07:15:29;216.35;;;68.18;;
26598;SDS011;14240;51.064;16.612;2024-01-10T07:17:55;221.95;;;67.20;;
26598;SDS011;14240;51.064;16.612;2024-01-10T07:20:21;222.45;;;71.00;;
26598;SDS011;14240;51.064;16.612;2024-01-10T07:22:49;229.63;;;68.00;;
26598;SDS011;14240;51.064;16.612;2024-01-10T07:27:42;234.15;;;68.10;;
26598;SDS011;14240;51.064;16.612;2024-01-10T07:30:09;209.23;;;67.32;;
26598;SDS011;14240;51.064;16.612;2024-01-10T07:32:41;215.50;;;68.30;;
26598;SDS011;14240;51.064;16.612;2024-01-10T07:37:35;240.10;;;71.23;;
26598;SDS011;14240;51.064;16.612;2024-01-10T07:40:08;223.43;;;70.85;;
26598;SDS011;14240;51.064;16.612;2024-01-10T07:42:35;206.50;;;67.07;;
26598;SDS011;14240;51.064;16.612;2024-01-10T07:45:02;202.13;;;64.35;;
26598;SDS011;14240;51.064;16.612;2024-01-10T07:47:32;198.98;;;63.70;;
26598;SDS011;14240;51.064;16.612;2024-01-10T07:50:05;203.60;;;66.82;;
26598;SDS011;14240;51.064;16.612;2024-01-10T07:52:31;216.77;;;70.70;;
26598;SDS011;14240;51.064;16.612;2024-01-10T07:54:57;184.60;;;62.30;;
26598;SDS011;14240;51.064;16.612;2024-01-10T07:57:23;201.30;;;65.32;;
26598;SDS011;14240;51.064;16.612;2024-01-10T07:59:48;200.00;;;63.15;;
26598;SDS011;14240;51.064;16.612;2024-01-10T08:02:14;201.60;;;67.32;;
26598;SDS011;14240;51.064;16.612;2024-01-10T08:04:40;192.90;;;64.07;;
26598;SDS011;14240;51.064;16.612;2024-01-10T08:07:06;187.05;;;62.35;;
26598;SDS011;14240;51.064;16.612;2024-01-10T08:09:31;178.90;;;62.50;;
26598;SDS011;14240;51.064;16.612;2024-01-10T08:11:57;197.55;;;61.38;;
26598;SDS011;14240;51.064;16.612;2024-01-10T08:14:23;181.50;;;63.45;;
26598;SDS011;14240;51.064;16.612;2024-01-10T08:16:49;177.30;;;58.70;;
26598;SDS011;14240;51.064;16.612;2024-01-10T08:19:18;190.82;;;62.35;;
26598;SDS011;14240;51.064;16.612;2024-01-10T08:21:43;180.68;;;60.80;;
26598;SDS011;14240;51.064;16.612;2024-01-10T08:24:09;191.00;;;60.60;;
26598;SDS011;14240;51.064;16.612;2024-01-10T08:26:35;180.68;;;59.58;;
26598;SDS011;14240;51.064;16.612;2024-01-10T08:29:03;185.60;;;60.15;;
26598;SDS011;14240;51.064;16.612;2024-01-10T08:31:28;182.80;;;59.30;;
26598;SDS011;14240;51.064;16.612;2024-01-10T08:33:54;188.80;;;56.88;;
26598;SDS011;14240;51.064;16.612;2024-01-10T08:36:22;180.18;;;57.95;;
26598;SDS011;14240;51.064;16.612;2024-01-10T08:38:49;168.65;;;58.33;;
26598;SDS011;14240;51.064;16.612;2024-01-10T08:41:15;184.63;;;59.60;;
26598;SDS011;14240;51.064;16.612;2024-01-10T08:43:41;180.73;;;61.15;;
26598;SDS011;14240;51.064;16.612;2024-01-10T08:46:10;187.15;;;62.20;;
26598;SDS011;14240;51.064;16.612;2024-01-10T08:48:36;203.25;;;66.80;;
26598;SDS011;14240;51.064;16.612;2024-01-10T08:51:01;205.40;;;68.25;;
26598;SDS011;14240;51.064;16.612;2024-01-10T08:53:27;181.32;;;61.25;;
26598;SDS011;14240;51.064;16.612;2024-01-10T08:55:53;177.27;;;59.13;;
26598;SDS011;14240;51.064;16.612;2024-01-10T08:58:19;185.13;;;61.35;;
26598;SDS011;14240;51.064;16.612;2024-01-10T09:00:45;180.07;;;59.65;;
26598;SDS011;14240;51.064;16.612;2024-01-10T09:03:11;196.95;;;62.28;;
26598;SDS011;14240;51.064;16.612;2024-01-10T09:05:37;188.25;;;58.08;;
26598;SDS011;14240;51.064;16.612;2024-01-10T09:08:03;187.43;;;62.15;;
26598;SDS011;14240;51.064;16.612;2024-01-10T09:10:29;173.85;;;57.58;;
26598;SDS011;14240;51.064;16.612;2024-01-10T09:12:55;169.70;;;56.63;;
26598;SDS011;14240;51.064;16.612;2024-01-10T09:15:20;160.18;;;54.30;;
26598;SDS011;14240;51.064;16.612;2024-01-10T09:17:46;175.68;;;59.90;;
26598;SDS011;14240;51.064;16.612;2024-01-10T09:20:12;173.75;;;57.75;;
26598;SDS011;14240;51.064;16.612;2024-01-10T09:22:38;167.40;;;58.63;;
26598;SDS011;14240;51.064;16.612;2024-01-10T09:25:04;147.35;;;50.95;;
26598;SDS011;14240;51.064;16.612;2024-01-10T09:27:34;141.87;;;50.83;;
26598;SDS011;14240;51.064;16.612;2024-01-10T09:30:03;135.18;;;47.28;;
26598;SDS011;14240;51.064;16.612;2024-01-10T09:32:33;142.55;;;54.65;;
26598;SDS011;14240;51.064;16.612;2024-01-10T09:34:59;157.63;;;59.05;;
26598;SDS011;14240;51.064;16.612;2024-01-10T09:37:25;144.55;;;57.90;;
26598;SDS011;14240;51.064;16.612;2024-01-10T09:39:51;139.77;;;54.90;;
26598;SDS011;14240;51.064;16.612;2024-01-10T09:42:17;135.40;;;51.95;;
26598;SDS011;14240;51.064;16.612;2024-01-10T09:44:45;133.00;;;51.10;;
26598;SDS011;14240;51.064;16.612;2024-01-10T09:47:13;131.55;;;53.30;;
26598;SDS011;14240;51.064;16.612;2024-01-10T09:49:40;159.63;;;61.88;;
26598;SDS011;14240;51.064;16.612;2024-01-10T09:52:06;166.40;;;62.45;;
26598;SDS011;14240;51.064;16.612;2024-01-10T09:54:35;163.07;;;66.70;;
26598;SDS011;14240;51.064;16.612;2024-01-10T09:57:03;153.35;;;60.03;;
26598;SDS011;14240;51.064;16.612;2024-01-10T09:59:30;156.70;;;56.42;;
26598;SDS011;14240;51.064;16.612;2024-01-10T10:01:56;139.10;;;55.97;;
26598;SDS011;14240;51.064;16.612;2024-01-10T10:04:25;146.57;;;55.95;;
26598;SDS011;14240;51.064;16.612;2024-01-10T10:06:59;132.25;;;55.05;;
26598;SDS011;14240;51.064;16.612;2024-01-10T10:09:26;133.63;;;53.78;;
26598;SDS011;14240;51.064;16.612;2024-01-10T10:11:56;155.00;;;61.03;;
26598;SDS011;14240;51.064;16.612;2024-01-10T10:14:23;146.32;;;58.08;;
26598;SDS011;14240;51.064;16.612;2024-01-10T10:16:52;155.27;;;60.35;;
26598;SDS011;14240;51.064;16.612;2024-01-10T10:19:25;151.93;;;59.60;;
26598;SDS011;14240;51.064;16.612;2024-01-10T10:21:51;165.68;;;63.28;;
26598;SDS011;14240;51.064;16.612;2024-01-10T10:24:16;144.80;;;57.13;;
26598;SDS011;14240;51.064;16.612;2024-01-10T10:26:42;148.38;;;59.33;;
26598;SDS011;14240;51.064;16.612;2024-01-10T10:29:09;147.82;;;58.65;;
26598;SDS011;14240;51.064;16.612;2024-01-10T10:31:35;155.32;;;59.38;;
26598;SDS011;14240;51.064;16.612;2024-01-10T10:34:01;155.90;;;60.28;;
26598;SDS011;14240;51.064;16.612;2024-01-10T10:36:27;149.68;;;58.08;;
26598;SDS011;14240;51.064;16.612;2024-01-10T10:38:55;138.50;;;56.45;;
26598;SDS011;14240;51.064;16.612;2024-01-10T10:41:20;139.23;;;57.60;;
26598;SDS011;14240;51.064;16.612;2024-01-10T10:43:46;156.48;;;59.80;;
26598;SDS011;14240;51.064;16.612;2024-01-10T10:46:15;150.30;;;60.33;;
26598;SDS011;14240;51.064;16.612;2024-01-10T10:48:41;148.95;;;56.70;;
26598;SDS011;14240;51.064;16.612;2024-01-10T10:51:11;161.82;;;59.15;;
26598;SDS011;14240;51.064;16.612;2024-01-10T10:53:45;141.13;;;52.40;;
26598;SDS011;14240;51.064;16.612;2024-01-10T10:56:12;159.52;;;58.92;;
26598;SDS011;14240;51.064;16.612;2024-01-10T10:58:42;153.52;;;56.47;;
26598;SDS011;14240;51.064;16.612;2024-01-10T11:01:10;156.80;;;60.05;;
26598;SDS011;14240;51.064;16.612;2024-01-10T11:03:38;177.52;;;64.07;;
26598;SDS011;14240;51.064;16.612;2024-01-10T11:06:09;175.60;;;62.60;;
26598;SDS011;14240;51.064;16.612;2024-01-10T11:08:36;179.63;;;64.88;;
26598;SDS011;14240;51.064;16.612;2024-01-10T11:14:21;171.90;;;62.95;;
26598;SDS011;14240;51.064;16.612;2024-01-10T11:25:17;178.82;;;64.78;;
26598;SDS011;14240;51.064;16.612;2024-01-10T11:27:44;170.25;;;66.40;;
26598;SDS011;14240;51.064;16.612;2024-01-10T11:30:12;176.65;;;61.83;;
26598;SDS011;14240;51.064;16.612;2024-01-10T11:32:38;174.52;;;62.10;;
26598;SDS011;14240;51.064;16.612;2024-01-10T11:35:19;192.10;;;67.05;;
26598;SDS011;14240;51.064;16.612;2024-01-10T11:37:49;174.40;;;63.60;;
26598;SDS011;14240;51.064;16.612;2024-01-10T11:40:16;195.97;;;69.67;;
26598;SDS011;14240;51.064;16.612;2024-01-10T11:43:08;187.40;;;65.32;;
26598;SDS011;14240;51.064;16.612;2024-01-10T11:45:38;202.20;;;72.35;;
26598;SDS011;14240;51.064;16.612;2024-01-10T11:48:15;192.88;;;71.10;;
26598;SDS011;14240;51.064;16.612;2024-01-10T11:50:42;209.68;;;68.38;;
26598;SDS011;14240;51.064;16.612;2024-01-10T11:53:07;215.93;;;72.72;;
26598;SDS011;14240;51.064;16.612;2024-01-10T11:55:52;188.40;;;69.75;;
26598;SDS011;14240;51.064;16.612;2024-01-10T11:58:18;196.90;;;64.15;;
26598;SDS011;14240;51.064;16.612;2024-01-10T12:00:43;202.75;;;67.80;;
26598;SDS011;14240;51.064;16.612;2024-01-10T12:03:11;184.10;;;64.82;;
26598;SDS011;14240;51.064;16.612;2024-01-10T12:05:37;189.70;;;69.40;;
26598;SDS011;14240;51.064;16.612;2024-01-10T12:08:07;191.93;;;68.28;;
26598;SDS011;14240;51.064;16.612;2024-01-10T12:10:33;191.18;;;64.70;;
26598;SDS011;14240;51.064;16.612;2024-01-10T12:13:02;199.63;;;69.97;;
26598;SDS011;14240;51.064;16.612;2024-01-10T12:15:28;185.30;;;68.28;;
26598;SDS011;14240;51.064;16.612;2024-01-10T12:17:54;183.85;;;65.63;;
26598;SDS011;14240;51.064;16.612;2024-01-10T12:20:20;186.98;;;65.32;;
26598;SDS011;14240;51.064;16.612;2024-01-10T12:22:46;191.50;;;68.40;;
26598;SDS011;14240;51.064;16.612;2024-01-10T12:25:12;199.15;;;71.45;;
26598;SDS011;14240;51.064;16.612;2024-01-10T12:27:38;203.30;;;70.25;;
26598;SDS011;14240;51.064;16.612;2024-01-10T12:30:04;206.75;;;72.75;;
26598;SDS011;14240;51.064;16.612;2024-01-10T12:32:31;217.97;;;74.00;;
26598;SDS011;14240;51.064;16.612;2024-01-10T12:35:03;203.68;;;75.15;;
26598;SDS011;14240;51.064;16.612;2024-01-10T12:37:30;209.90;;;73.93;;
26598;SDS011;14240;51.064;16.612;2024-01-10T12:39:56;212.93;;;75.43;;
26598;SDS011;14240;51.064;16.612;2024-01-10T12:42:22;213.63;;;75.80;;
26598;SDS011;14240;51.064;16.612;2024-01-10T12:44:49;208.43;;;73.95;;
26598;SDS011;14240;51.064;16.612;2024-01-10T12:47:21;224.63;;;79.32;;
26598;SDS011;14240;51.064;16.612;2024-01-10T12:49:49;220.38;;;75.93;;
26598;SDS011;14240;51.064;16.612;2024-01-10T12:52:15;225.73;;;74.25;;
26598;SDS011;14240;51.064;16.612;2024-01-10T12:54:41;221.02;;;77.38;;
26598;SDS011;14240;51.064;16.612;2024-01-10T12:57:07;229.70;;;79.18;;
26598;SDS011;14240;51.064;16.612;2024-01-10T12:59:33;214.55;;;75.13;;
26598;SDS011;14240;51.064;16.612;2024-01-10T13:01:59;220.30;;;72.25;;
26598;SDS011;14240;51.064;16.612;2024-01-10T13:04:25;217.82;;;73.72;;
26598;SDS011;14240;51.064;16.612;2024-01-10T13:06:50;210.55;;;71.95;;
26598;SDS011;14240;51.064;16.612;2024-01-10T13:09:16;208.85;;;74.93;;
26598;SDS011;14240;51.064;16.612;2024-01-10T13:11:42;243.88;;;77.35;;
26598;SDS011;14240;51.064;16.612;2024-01-10T13:14:08;228.57;;;76.82;;
26598;SDS011;14240;51.064;16.612;2024-01-10T13:16:34;218.70;;;81.05;;
26598;SDS011;14240;51.064;16.612;2024-01-10T13:19:00;216.05;;;75.32;;
26598;SDS011;14240;51.064;16.612;2024-01-10T13:21:26;221.55;;;74.75;;
26598;SDS011;14240;51.064;16.612;2024-01-10T13:23:51;211.20;;;73.50;;
26598;SDS011;14240;51.064;16.612;2024-01-10T13:26:17;214.30;;;75.35;;
26598;SDS011;14240;51.064;16.612;2024-01-10T13:28:43;211.98;;;73.30;;
26598;SDS011;14240;51.064;16.612;2024-01-10T13:31:09;229.65;;;74.43;;
26598;SDS011;14240;51.064;16.612;2024-01-10T13:33:35;222.68;;;75.43;;
26598;SDS011;14240;51.064;16.612;2024-01-10T13:36:02;221.32;;;76.63;;
26598;SDS011;14240;51.064;16.612;2024-01-10T13:38:29;211.30;;;75.57;;
26598;SDS011;14240;51.064;16.612;2024-01-10T13:40:55;220.75;;;73.85;;
26598;SDS011;14240;51.064;16.612;2024-01-10T13:43:21;218.98;;;75.20;;
26598;SDS011;14240;51.064;16.612;2024-01-10T13:45:47;209.23;;;72.85;;
26598;SDS011;14240;51.064;16.612;2024-01-10T13:48:13;220.43;;;73.47;;
26598;SDS011;14240;51.064;16.612;2024-01-10T13:50:39;217.63;;;74.38;;
26598;SDS011;14240;51.064;16.612;2024-01-10T13:53:04;234.02;;;76.32;;
26598;SDS011;14240;51.064;16.612;2024-01-10T13:55:30;237.25;;;82.63;;
26598;SDS011;14240;51.064;16.612;2024-01-10T13:57:56;230.98;;;77.15;;
26598;SDS011;14240;51.064;16.612;2024-01-10T14:00:22;237.70;;;75.45;;
26598;SDS011;14240;51.064;16.612;2024-01-10T14:02:48;227.20;;;76.15;;
26598;SDS011;14240;51.064;16.612;2024-01-10T14:05:14;223.23;;;72.32;;
26598;SDS011;14240;51.064;16.612;2024-01-10T14:07:40;226.40;;;75.70;;
26598;SDS011;14240;51.064;16.612;2024-01-10T14:10:09;231.65;;;78.93;;
26598;SDS011;14240;51.064;16.612;2024-01-10T14:12:38;243.70;;;84.60;;
26598;SDS011;14240;51.064;16.612;2024-01-10T14:15:05;243.98;;;78.47;;
26598;SDS011;14240;51.064;16.612;2024-01-10T14:17:30;235.50;;;79.22;;